Time;durP1;ratioP1;P1;durP2;ratioP2;P2;SDS_P1;SDS_P2;PMS_P1;PMS_P2;Temp;Humidity;BMP_temperature;BMP_pressure;BME280_temperature;BME280_humidity;BME280_pressure;Samples;Min_cycle;Max_cycle;Signal;HPM_P1;HPM_P2
2022/05/23 00:00:09;;;;;;;11.25;6.93;;;;;;;19.18;53.31;100632.84;5080446;28;20110;-89
2022/05/23 00:02:34;;;;;;;10.15;6.60;;;;;;;19.20;52.73;100622.84;5079945;28;20035;-89
2022/05/23 00:04:59;;;;;;;12.77;6.38;;;;;;;19.24;52.64;100618.09;5076455;28;20028;-89
2022/05/23 00:07:32;;;;;;;10.02;6.28;;;;;;;19.20;52.74;100627.34;5077709;28;20028;-90
2022/05/23 00:09:58;;;;;;;10.48;6.60;;;;;;;19.18;52.68;100624.78;5080002;28;20035;-90
2022/05/23 00:12:24;;;;;;;10.30;6.28;;;;;;;19.25;53.08;100628.69;5079132;28;20020;-89
2022/05/23 00:14:50;;;;;;;13.80;6.95;;;;;;;19.23;52.12;100636.00;5069743;28;20082;-90
2022/05/23 00:17:16;;;;;;;8.02;6.30;;;;;;;19.23;52.76;100625.28;5077531;28;20032;-89
2022/05/23 00:19:42;;;;;;;10.90;7.43;;;;;;;19.37;52.48;100641.13;5074553;28;20029;-90
2022/05/23 00:22:08;;;;;;;10.68;6.28;;;;;;;19.36;52.07;100642.09;5080045;28;20059;-90
2022/05/23 00:24:34;;;;;;;8.25;6.07;;;;;;;19.42;52.05;100643.41;5057219;28;20024;-89
2022/05/23 00:26:59;;;;;;;8.45;6.35;;;;;;;19.44;53.23;100628.06;5062665;28;20118;-89
2022/05/23 00:29:25;;;;;;;8.90;6.35;;;;;;;19.32;52.90;100624.53;5080059;28;20378;-89
2022/05/23 00:37:20;;;;;;;9.57;6.40;;;;;;;19.22;53.28;100606.66;5072635;28;20059;-90
2022/05/23 00:39:45;;;;;;;10.77;6.63;;;;;;;19.25;52.78;100606.38;5072777;28;20051;-89
2022/05/23 00:44:58;;;;;;;8.70;6.68;;;;;;;19.36;53.13;100617.13;5074227;28;20058;-90
2022/05/23 00:47:26;;;;;;;8.20;6.00;;;;;;;19.34;53.45;100611.84;5081244;28;20052;-89
2022/05/23 00:49:52;;;;;;;14.80;6.55;;;;;;;19.44;52.65;100614.66;5076792;28;20040;-89
2022/05/23 00:52:32;;;;;;;12.90;7.10;;;;;;;19.46;52.10;100606.50;5077697;28;20062;-89
2022/05/23 00:55:03;;;;;;;10.23;6.65;;;;;;;19.43;52.35;100602.22;5078768;28;20119;-89
2022/05/23 00:57:34;;;;;;;9.02;6.78;;;;;;;19.42;53.48;100583.59;5078053;28;20476;-89
2022/05/23 01:00:03;;;;;;;9.20;6.57;;;;;;;19.16;55.11;100583.84;5077455;28;20530;-89
2022/05/23 01:02:30;;;;;;;10.98;7.32;;;;;;;18.87;56.07;100583.50;5076874;28;20089;-89
2022/05/23 01:04:56;;;;;;;14.35;7.60;;;;;;;18.73;56.70;100581.91;5066993;28;20467;-89
2022/05/23 01:07:21;;;;;;;11.88;7.50;;;;;;;18.79;55.91;100588.59;5061508;28;20032;-89
2022/05/23 01:09:49;;;;;;;13.20;7.38;;;;;;;18.73;56.65;100589.94;5055777;28;20051;-89
2022/05/23 01:12:15;;;;;;;10.60;6.75;;;;;;;18.88;55.21;100597.75;5063495;28;20043;-89
2022/05/23 01:14:49;;;;;;;10.02;7.47;;;;;;;18.80;55.62;100601.03;5076253;28;20041;-90
2022/05/23 01:17:15;;;;;;;10.98;6.95;;;;;;;18.75;55.50;100597.88;5078498;28;20609;-89
2022/05/23 01:19:41;;;;;;;14.73;7.38;;;;;;;18.78;55.60;100614.53;5072339;28;20502;-90
2022/05/23 01:22:25;;;;;;;13.25;7.13;;;;;;;18.96;53.94;100608.72;5045203;28;20025;-89
2022/05/23 01:25:08;;;;;;;10.30;7.03;;;;;;;18.98;54.45;100609.44;5076026;28;20024;-90
2022/05/23 01:27:34;;;;;;;11.80;7.00;;;;;;;18.86;54.89;100598.72;5076742;28;20364;-90
2022/05/23 01:30:00;;;;;;;8.75;6.70;;;;;;;18.82;54.91;100591.03;5063584;28;20031;-90
2022/05/23 01:32:25;;;;;;;11.23;7.03;;;;;;;18.78;55.26;100582.38;5081626;28;20028;-89
2022/05/23 01:34:51;;;;;;;13.85;7.25;;;;;;;18.85;55.50;100586.31;5084525;28;20036;-90
2022/05/23 01:37:16;;;;;;;10.73;7.78;;;;;;;18.63;56.24;100577.38;5064839;28;20055;-90
2022/05/23 01:39:41;;;;;;;10.90;6.90;;;;;;;18.61;55.86;100566.78;5062998;28;20103;-89
2022/05/23 01:42:07;;;;;;;9.55;6.72;;;;;;;18.64;55.78;100577.22;5063651;28;20028;-90
2022/05/23 01:44:34;;;;;;;9.90;7.65;;;;;;;18.60;55.01;100573.09;5073584;28;20028;-90
2022/05/23 01:47:05;;;;;;;10.93;7.07;;;;;;;18.64;54.77;100577.22;5079857;28;20044;-90
2022/05/23 01:49:31;;;;;;;13.63;6.95;;;;;;;18.60;54.28;100573.97;5065259;28;20039;-89
2022/05/23 01:51:56;;;;;;;12.35;7.45;;;;;;;18.52;54.85;100573.69;5079579;28;20036;-90
2022/05/23 01:54:21;;;;;;;11.65;7.22;;;;;;;18.55;55.96;100594.00;5079494;28;20038;-90
2022/05/23 01:56:46;;;;;;;11.52;7.40;;;;;;;18.51;55.53;100589.88;5066220;28;20070;-89
2022/05/23 02:01:56;;;;;;;11.90;7.90;;;;;;;18.30;56.12;100571.81;5077261;28;20089;-89
2022/05/23 02:04:21;;;;;;;9.27;7.00;;;;;;;18.26;55.47;100566.81;5082222;28;20391;-90
2022/05/23 02:06:46;;;;;;;10.70;7.53;;;;;;;18.31;56.14;100568.16;5078800;28;20453;-89
2022/05/23 02:09:12;;;;;;;12.38;7.32;;;;;;;18.24;56.12;100561.59;5058558;28;20032;-89
2022/05/23 02:11:37;;;;;;;12.48;8.15;;;;;;;18.22;55.84;100560.84;5076900;28;20482;-90
2022/05/23 02:14:02;;;;;;;10.23;8.15;;;;;;;18.20;56.22;100560.13;5088426;28;20115;-89
2022/05/23 02:16:28;;;;;;;11.32;7.95;;;;;;;18.14;56.85;100563.28;5065596;28;20060;-90
2022/05/23 02:18:53;;;;;;;12.05;8.07;;;;;;;18.12;56.81;100559.84;5075989;28;20258;-89
2022/05/23 02:21:18;;;;;;;11.30;7.47;;;;;;;18.08;57.01;100567.25;5059857;28;20475;-90
2022/05/23 02:23:44;;;;;;;13.15;7.70;;;;;;;18.00;56.67;100548.28;5080922;28;20031;-90
2022/05/23 02:26:09;;;;;;;12.02;7.40;;;;;;;17.99;56.73;100551.88;5076868;28;20451;-90
2022/05/23 02:28:35;;;;;;;14.15;8.32;;;;;;;18.01;56.83;100549.97;5063769;28;20024;-90
2022/05/23 02:31:00;;;;;;;10.73;7.90;;;;;;;17.99;56.92;100556.38;5081887;28;20106;-90
2022/05/23 02:33:26;;;;;;;10.20;7.95;;;;;;;17.98;57.12;100554.69;5059130;28;20024;-90
2022/05/23 02:35:51;;;;;;;12.15;7.72;;;;;;;17.92;56.93;100550.66;5079231;28;20078;-90
2022/05/23 02:38:16;;;;;;;14.63;7.97;;;;;;;17.76;58.40;100545.59;5075271;28;20016;-90
2022/05/23 02:40:42;;;;;;;12.05;7.35;;;;;;;17.76;57.05;100534.91;5078346;28;20289;-90
2022/05/23 02:43:07;;;;;;;8.73;7.20;;;;;;;17.77;58.14;100541.97;5079445;28;20486;-89
2022/05/23 02:45:32;;;;;;;15.63;8.38;;;;;;;17.70;58.52;100532.66;5061238;28;20107;-90
2022/05/23 02:47:58;;;;;;;8.60;7.30;;;;;;;17.68;57.69;100526.59;5060070;28;20097;-90
2022/05/23 02:50:24;;;;;;;11.18;8.00;;;;;;;17.73;58.29;100521.78;5064505;28;20088;-89
2022/05/23 02:52:49;;;;;;;9.50;8.15;;;;;;;17.75;58.48;100529.69;5059697;28;20028;-90
2022/05/23 02:55:14;;;;;;;8.60;7.38;;;;;;;17.75;58.05;100510.97;5078367;28;20040;-89
2022/05/23 02:57:40;;;;;;;11.38;8.35;;;;;;;17.77;57.76;100504.53;5076517;28;20036;-89
2022/05/23 03:00:08;;;;;;;10.40;8.02;;;;;;;17.75;57.75;100492.25;5076786;28;20495;-90
2022/05/23 03:05:18;;;;;;;9.73;7.88;;;;;;;17.56;58.80;100466.00;5077115;28;20031;-89
2022/05/23 03:07:43;;;;;;;13.75;8.30;;;;;;;17.51;58.66;100466.34;5078817;28;20032;-90
2022/05/23 03:10:09;;;;;;;12.20;8.50;;;;;;;17.44;58.74;100437.53;5064526;28;20115;-90
2022/05/23 03:12:34;;;;;;;10.73;7.95;;;;;;;17.53;59.18;100439.50;5080296;28;20020;-90
2022/05/23 03:15:01;;;;;;;10.27;7.60;;;;;;;17.52;59.06;100440.47;5064524;28;20379;-90
2022/05/23 03:17:26;;;;;;;14.10;8.88;;;;;;;17.38;59.79;100433.50;5060254;28;20489;-90
2022/05/23 03:19:51;;;;;;;14.65;8.85;;;;;;;17.33;58.59;100430.31;5058961;28;20032;-90
2022/05/23 03:27:44;;;;;;;13.85;8.63;;;;;;;17.14;60.12;100430.84;5078581;28;20648;-90
2022/05/23 03:30:11;;;;;;;12.45;8.15;;;;;;;17.25;59.23;100427.38;5078009;28;20028;-90
2022/05/23 03:32:36;;;;;;;15.63;9.52;;;;;;;17.18;59.73;100418.97;5076563;28;20028;-90
2022/05/23 03:35:03;;;;;;;17.27;8.73;;;;;;;17.29;59.92;100421.69;5060078;28;20088;-90
2022/05/23 03:37:28;;;;;;;15.95;9.05;;;;;;;17.24;59.33;100405.13;5076858;28;20028;-90
2022/05/23 03:39:54;;;;;;;13.65;8.88;;;;;;;17.17;60.17;100403.91;5063120;28;20028;-90
2022/05/23 03:42:19;;;;;;;14.43;8.68;;;;;;;17.12;59.47;100400.72;5062635;28;20024;-90
2022/05/23 03:44:45;;;;;;;14.25;8.95;;;;;;;17.09;60.27;100387.59;5063352;28;20047;-90
2022/05/23 03:47:11;;;;;;;11.82;8.80;;;;;;;17.20;59.07;100398.31;5069128;28;20035;-90
2022/05/23 03:49:36;;;;;;;11.77;8.00;;;;;;;17.14;60.58;100385.44;5062584;28;20147;-90
2022/05/23 03:52:02;;;;;;;15.32;8.70;;;;;;;17.22;60.56;100399.06;5075701;28;20038;-90
2022/05/23 03:54:28;;;;;;;14.13;9.45;;;;;;;17.24;60.38;100390.94;5076075;28;20425;-90
2022/05/23 03:57:00;;;;;;;13.15;8.77;;;;;;;17.27;59.34;100378.19;5063949;28;20028;-90
2022/05/23 03:59:27;;;;;;;17.08;9.32;;;;;;;17.15;60.56;100384.47;5061166;28;20115;-90
2022/05/23 04:01:56;;;;;;;13.00;9.07;;;;;;;17.16;60.47;100386.19;5059710;28;20036;-90
2022/05/23 04:04:25;;;;;;;12.57;9.15;;;;;;;17.09;60.47;100374.25;5076605;28;20070;-90
2022/05/23 04:06:50;;;;;;;14.90;10.05;;;;;;;17.14;60.88;100377.41;5069157;28;20479;-90
2022/05/23 04:09:16;;;;;;;13.35;8.85;;;;;;;17.19;60.46;100377.91;5061407;28;20016;-90
2022/05/23 04:11:42;;;;;;;15.45;9.85;;;;;;;17.22;61.15;100375.03;5060986;28;20767;-90
2022/05/23 04:14:07;;;;;;;12.77;9.35;;;;;;;17.13;61.63;100369.53;5056098;28;20323;-90
2022/05/23 04:16:33;;;;;;;12.98;8.57;;;;;;;17.17;60.49;100369.19;5061491;28;20030;-90
2022/05/23 04:18:58;;;;;;;13.13;9.10;;;;;;;17.26;60.20;100376.50;5059975;28;20040;-90
2022/05/23 04:21:24;;;;;;;11.38;8.77;;;;;;;17.28;60.06;100350.50;5063225;28;20036;-91
2022/05/23 04:23:50;;;;;;;15.15;9.15;;;;;;;17.24;61.80;100353.53;5077877;28;20028;-90
2022/05/23 04:26:15;;;;;;;10.57;7.97;;;;;;;17.17;61.33;100353.16;5077894;28;20055;-90
2022/05/23 04:28:41;;;;;;;14.15;8.23;;;;;;;17.18;60.74;100337.97;5060118;28;20100;-90
2022/05/23 04:31:07;;;;;;;10.48;8.57;;;;;;;17.31;60.31;100347.63;5061842;28;20032;-90
2022/05/23 04:36:17;;;;;;;12.57;8.48;;;;;;;17.23;61.58;100344.66;5079290;28;20846;-90
2022/05/23 04:38:43;;;;;;;14.40;9.55;;;;;;;17.28;61.17;100353.19;5080476;28;20028;-90
2022/05/23 04:41:09;;;;;;;13.10;9.40;;;;;;;17.36;61.59;100349.09;5057380;28;20438;-90
2022/05/23 04:43:34;;;;;;;11.48;8.63;;;;;;;17.41;61.22;100347.75;5074967;28;20501;-89
2022/05/23 04:46:00;;;;;;;13.23;9.15;;;;;;;17.48;60.94;100337.44;5077297;28;20567;-90
2022/05/23 04:51:10;;;;;;;14.15;8.82;;;;;;;17.64;60.56;100327.28;5076869;28;20066;-90
2022/05/23 04:53:35;;;;;;;13.95;10.00;;;;;;;17.62;61.13;100313.16;5074179;28;20445;-90
2022/05/23 04:56:00;;;;;;;14.10;9.65;;;;;;;17.50;62.17;100324.81;5075608;28;20491;-90
2022/05/23 04:58:27;;;;;;;11.05;8.75;;;;;;;17.47;62.88;100328.56;5075622;28;20111;-89
2022/05/23 05:00:53;;;;;;;14.50;9.40;;;;;;;17.55;62.43;100318.16;5063841;28;20040;-90
2022/05/23 05:03:19;;;;;;;11.88;9.02;;;;;;;17.66;61.81;100319.13;5064456;28;20035;-90
2022/05/23 05:05:45;;;;;;;13.20;9.80;;;;;;;17.76;61.70;100322.81;5078022;28;20031;-90
2022/05/23 05:08:11;;;;;;;11.13;9.55;;;;;;;17.75;62.49;100318.44;5062018;28;20031;-90
2022/05/23 05:10:36;;;;;;;11.68;8.73;;;;;;;17.82;61.39;100315.19;5081641;28;20075;-90
2022/05/23 05:13:02;;;;;;;14.77;10.23;;;;;;;17.88;61.71;100305.81;5063908;28;20707;-89
2022/05/23 05:15:28;;;;;;;11.15;9.93;;;;;;;17.96;61.66;100308.75;5068494;28;20024;-90
2022/05/23 05:17:54;;;;;;;13.02;9.32;;;;;;;18.10;60.89;100310.31;5061998;28;20433;-90
2022/05/23 05:20:20;;;;;;;11.05;9.63;;;;;;;18.15;60.35;100296.56;5080737;28;20088;-90
2022/05/23 05:22:46;;;;;;;12.80;9.18;;;;;;;18.29;61.07;100283.78;5078999;28;20035;-90
2022/05/23 05:25:12;;;;;;;11.95;9.60;;;;;;;18.14;62.87;100281.47;5074872;28;20016;-89
2022/05/23 05:27:38;;;;;;;15.93;10.52;;;;;;;18.01;62.79;100269.09;5074112;28;20474;-89
2022/05/23 05:30:06;;;;;;;14.93;10.50;;;;;;;18.13;62.54;100274.41;5057032;28;20036;-90
2022/05/23 05:32:49;;;;;;;12.90;10.50;;;;;;;18.14;63.09;100274.31;5061259;28;20414;-90
2022/05/23 05:35:25;;;;;;;11.52;9.07;;;;;;;18.24;62.26;100261.03;5081871;28;20489;-90
2022/05/23 05:37:57;;;;;;;11.35;9.52;;;;;;;18.19;63.66;100261.41;5079751;28;20624;-90
2022/05/23 05:40:26;;;;;;;14.00;10.70;;;;;;;18.18;63.42;100257.00;5079516;28;20028;-89
2022/05/23 05:42:57;;;;;;;10.20;9.10;;;;;;;18.35;61.84;100267.19;5082554;28;20494;-90
2022/05/23 05:45:29;;;;;;;12.07;9.77;;;;;;;18.42;61.53;100248.84;5078143;28;20032;-90
2022/05/23 05:47:54;;;;;;;14.80;9.57;;;;;;;18.59;62.30;100255.44;5080616;28;20138;-90
2022/05/23 05:50:26;;;;;;;11.40;9.18;;;;;;;18.60;62.19;100243.75;5064021;28;20115;-89
2022/05/23 05:52:55;;;;;;;12.97;9.77;;;;;;;18.76;61.16;100244.22;5066008;28;20478;-89
2022/05/23 05:55:21;;;;;;;13.93;10.13;;;;;;;18.79;62.02;100238.63;5076873;28;20028;-89
2022/05/23 05:57:47;;;;;;;12.20;9.93;;;;;;;18.84;61.29;100236.41;5060687;28;20043;-89
2022/05/23 06:00:13;;;;;;;13.32;10.88;;;;;;;18.85;61.55;100229.22;5063622;28;20032;-90
2022/05/23 06:02:39;;;;;;;13.50;10.40;;;;;;;18.93;61.49;100228.53;5066112;28;20036;-90
2022/05/23 06:05:04;;;;;;;11.23;10.00;;;;;;;19.01;60.87;100229.59;5079159;28;20054;-90
2022/05/23 06:12:57;;;;;;;12.02;9.85;;;;;;;19.33;59.62;100234.03;5077630;28;20410;-90
2022/05/23 06:15:23;;;;;;;14.82;10.10;;;;;;;19.37;59.66;100233.63;5080583;28;20024;-89
2022/05/23 06:17:50;;;;;;;10.93;9.82;;;;;;;19.45;59.67;100226.78;5078027;28;20020;-89
2022/05/23 06:20:15;;;;;;;12.10;8.88;;;;;;;19.58;59.55;100230.94;5075988;28;20023;-89
2022/05/23 06:22:41;;;;;;;14.65;10.38;;;;;;;19.68;58.53;100211.34;5082411;28;20378;-90
2022/05/23 06:25:08;;;;;;;10.55;9.43;;;;;;;19.79;58.18;100213.94;5078596;28;20476;-89
2022/05/23 06:27:33;;;;;;;12.90;10.75;;;;;;;19.83;58.55;100221.59;5066869;28;21509;-89
2022/05/23 06:29:59;;;;;;;15.38;9.85;;;;;;;19.97;58.33;100211.47;5076909;28;20028;-88
2022/05/23 06:32:24;;;;;;;11.38;9.48;;;;;;;20.00;57.92;100198.59;5076290;28;20386;-88
2022/05/23 06:34:50;;;;;;;12.23;8.95;;;;;;;20.10;57.59;100206.69;5057812;28;20024;-89
2022/05/23 06:37:16;;;;;;;12.68;9.32;;;;;;;20.15;56.84;100204.44;5076391;28;20540;-88
2022/05/23 06:39:41;;;;;;;13.30;9.13;;;;;;;20.28;56.37;100194.28;5066462;28;20495;-88
2022/05/23 06:42:06;;;;;;;12.15;9.27;;;;;;;20.41;55.65;100172.53;5080812;28;20479;-88
2022/05/23 06:44:32;;;;;;;12.27;9.10;;;;;;;20.45;54.68;100176.63;5063414;28;20020;-88
2022/05/23 06:46:58;;;;;;;15.43;10.68;;;;;;;20.39;54.69;100186.09;5079571;28;20056;-89
2022/05/23 06:49:25;;;;;;;14.20;9.27;;;;;;;20.32;56.73;100198.38;5059785;28;20496;-89
2022/05/23 06:51:51;;;;;;;11.77;9.68;;;;;;;20.37;55.27;100200.63;5079205;28;20024;-89
2022/05/23 06:54:19;;;;;;;12.40;9.52;;;;;;;20.44;55.82;100192.88;5080374;28;20039;-88
2022/05/23 06:56:46;;;;;;;12.20;9.40;;;;;;;20.53;54.92;100190.22;5075635;28;20372;-89
2022/05/23 06:59:13;;;;;;;12.77;9.68;;;;;;;20.48;54.27;100199.72;5080295;28;20110;-88
2022/05/23 07:01:39;;;;;;;10.70;9.35;;;;;;;20.55;55.77;100190.06;5078230;28;20035;-89
2022/05/23 07:04:04;;;;;;;12.88;11.18;;;;;;;20.62;54.69;100201.97;5080768;28;20097;-88
2022/05/23 07:14:41;;;;;;;11.63;9.60;;;;;;;20.78;54.77;100191.47;5074040;28;20109;-89
2022/05/23 07:17:07;;;;;;;15.60;10.18;;;;;;;20.70;55.13;100191.34;5077777;28;20586;-89
2022/05/23 07:19:35;;;;;;;15.23;11.10;;;;;;;20.74;55.03;100192.75;5079678;28;20032;-89
2022/05/23 07:22:02;;;;;;;11.07;9.10;;;;;;;20.83;54.48;100191.06;5079910;28;20398;-89
2022/05/23 07:24:28;;;;;;;13.57;9.60;;;;;;;20.78;54.79;100186.09;5081713;28;20139;-89
2022/05/23 07:26:54;;;;;;;12.63;8.65;;;;;;;20.93;54.41;100194.56;5079137;28;20039;-89
2022/05/23 07:29:23;;;;;;;11.13;8.13;;;;;;;20.98;54.15;100191.44;5065236;28;20032;-89
2022/05/23 07:31:50;;;;;;;12.00;8.65;;;;;;;21.03;55.14;100190.03;5077203;28;20028;-89
2022/05/23 07:34:15;;;;;;;10.43;8.18;;;;;;;21.05;55.46;100184.50;5066182;28;20036;-89
2022/05/23 07:36:41;;;;;;;14.52;7.53;;;;;;;21.10;53.65;100188.44;5077333;28;20471;-89
2022/05/23 07:39:09;;;;;;;13.30;7.80;;;;;;;21.01;53.90;100188.47;5077046;28;20023;-89
2022/05/23 07:41:35;;;;;;;10.68;7.40;;;;;;;21.00;53.96;100186.78;5078432;28;20976;-89
2022/05/23 07:44:00;;;;;;;15.35;8.15;;;;;;;21.21;53.42;100192.81;5065415;28;20024;-89
2022/05/23 07:46:26;;;;;;;7.85;6.78;;;;;;;21.44;52.73;100187.94;5055222;28;20456;-89
2022/05/23 07:48:51;;;;;;;11.45;6.75;;;;;;;21.62;52.69;100180.78;5067770;28;20101;-89
2022/05/23 07:51:20;;;;;;;9.00;6.28;;;;;;;21.76;51.44;100187.53;5077486;28;20024;-89
2022/05/23 08:01:58;;;;;;;11.75;6.75;;;;;;;23.53;46.32;100174.09;5073551;28;20277;-90
2022/05/23 08:04:24;;;;;;;8.25;6.10;;;;;;;24.21;45.10;100178.59;5077867;28;20044;-89
2022/05/23 08:06:49;;;;;;;9.27;6.30;;;;;;;24.13;45.03;100167.75;5076386;28;20024;-90
2022/05/23 08:09:16;;;;;;;8.52;5.88;;;;;;;24.15;45.79;100180.09;5060313;28;20439;-90
2022/05/23 08:11:44;;;;;;;9.60;6.13;;;;;;;24.29;44.73;100169.63;5064088;28;20069;-89
2022/05/23 08:14:10;;;;;;;8.85;5.82;;;;;;;24.64;45.88;100157.69;5064309;28;20062;-89
2022/05/23 08:16:36;;;;;;;13.40;6.68;;;;;;;24.99;43.59;100151.06;5069472;28;20399;-90
2022/05/23 08:19:04;;;;;;;10.88;7.20;;;;;;;25.04;42.79;100143.31;5060299;28;20533;-90
2022/05/23 08:21:30;;;;;;;7.85;6.18;;;;;;;24.86;43.01;100140.78;5067587;28;20491;-90
2022/05/23 08:23:55;;;;;;;10.15;6.32;;;;;;;24.70;43.44;100132.69;5078318;28;20028;-90
2022/05/23 08:26:20;;;;;;;10.15;6.25;;;;;;;24.14;44.92;100131.63;5061824;28;20377;-90
2022/05/23 08:28:46;;;;;;;10.38;6.32;;;;;;;24.01;45.01;100133.97;5077332;28;20115;-90
2022/05/23 08:31:12;;;;;;;11.05;6.80;;;;;;;23.76;45.64;100142.00;5057069;28;20028;-90
2022/05/23 08:33:37;;;;;;;9.05;6.72;;;;;;;23.10;45.56;100140.00;5073828;28;20039;-90
2022/05/23 08:36:03;;;;;;;9.98;7.53;;;;;;;22.94;47.13;100142.56;5063299;28;20028;-89
2022/05/23 08:38:28;;;;;;;11.90;7.00;;;;;;;23.10;47.98;100131.91;5067710;28;20474;-89
2022/05/23 08:41:15;;;;;;;9.82;6.75;;;;;;;23.20;48.19;100131.78;5066240;28;20043;-89
2022/05/23 08:43:46;;;;;;;13.80;6.50;;;;;;;23.22;48.47;100117.13;5080285;28;20110;-89
2022/05/23 08:46:20;;;;;;;8.20;7.28;;;;;;;23.11;47.50;100088.59;5082342;28;20556;-89
2022/05/23 08:49:05;;;;;;;10.85;6.53;;;;;;;22.93;49.20;100093.19;5080720;28;20032;-90
2022/05/23 08:51:45;;;;;;;8.30;5.95;;;;;;;22.88;49.08;100100.88;5083455;28;20028;-89
2022/05/23 08:54:25;;;;;;;10.18;6.38;;;;;;;22.81;48.24;100100.69;5060132;28;20050;-90
2022/05/23 08:56:55;;;;;;;9.23;5.90;;;;;;;22.76;49.66;100092.25;5076107;28;20036;-90
2022/05/23 08:59:42;;;;;;;10.07;6.00;;;;;;;22.90;49.80;100099.78;5066200;28;20073;-90
2022/05/23 09:02:18;;;;;;;12.32;5.90;;;;;;;22.93;50.01;100093.19;5090938;28;20089;-89
2022/05/23 09:04:52;;;;;;;8.05;5.28;;;;;;;23.23;48.86;100097.25;5078898;28;20024;-90
2022/05/23 09:07:30;;;;;;;9.80;6.00;;;;;;;23.47;47.87;100082.19;5077553;28;20534;-89
2022/05/23 09:09:59;;;;;;;8.05;5.65;;;;;;;23.75;46.48;100062.03;5068720;28;20517;-90
2022/05/23 09:12:25;;;;;;;11.30;6.70;;;;;;;23.81;47.43;100058.66;5066637;28;20032;-90
2022/05/23 09:14:50;;;;;;;8.93;6.05;;;;;;;23.54;45.79;100054.34;5065081;28;20089;-90
2022/05/23 09:17:22;;;;;;;11.88;6.10;;;;;;;23.33;48.26;100060.19;5064010;28;20514;-89
2022/05/23 09:20:05;;;;;;;27.58;7.22;;;;;;;23.35;48.46;100062.72;5070750;28;20028;-90
2022/05/23 09:22:43;;;;;;;11.80;6.07;;;;;;;23.38;48.80;100055.16;5078112;28;20102;-90
2022/05/23 09:25:11;;;;;;;9.70;5.50;;;;;;;23.23;49.49;100048.69;5067056;28;20531;-89
2022/05/23 09:27:45;;;;;;;9.35;5.72;;;;;;;23.10;48.56;100042.91;5077783;28;20031;-90
2022/05/23 09:30:16;;;;;;;9.52;5.80;;;;;;;22.78;50.25;100048.94;5073041;28;20341;-90
2022/05/23 09:32:53;;;;;;;8.05;5.55;;;;;;;22.91;49.90;100046.69;5080759;28;20051;-89
2022/05/23 09:35:26;;;;;;;9.63;6.63;;;;;;;22.80;48.13;100053.19;5064131;28;20559;-89
2022/05/23 09:38:14;;;;;;;13.52;7.03;;;;;;;22.96;48.53;100032.75;5063470;28;20255;-89
2022/05/23 09:40:39;;;;;;;12.43;5.97;;;;;;;23.01;49.90;100020.47;5063927;28;20607;-89
2022/05/23 09:49:07;;;;;;;11.18;6.45;;;;;;;23.79;48.95;99995.91;4999333;28;20060;-91
2022/05/23 09:52:00;;;;;;;13.35;6.93;;;;;;;24.11;46.77;99991.53;5061299;28;20032;-91
2022/05/23 09:54:28;;;;;;;;;;;;;;;24.56;46.62;99990.97;5064525;28;20022;-91
2022/05/23 09:56:54;;;;;;;10.93;6.03;;;;;;;24.37;45.86;99984.09;5068893;28;19924;-90
2022/05/23 09:59:19;;;;;;;13.43;6.28;;;;;;;24.51;44.84;99990.66;5058625;28;20390;-91
2022/05/23 10:01:45;;;;;;;8.07;6.10;;;;;;;24.49;45.03;99978.34;5076454;28;20024;-91
2022/05/23 10:04:23;;;;;;;9.13;5.97;;;;;;;24.55;45.47;99970.38;5058385;28;20020;-91
2022/05/23 10:06:51;;;;;;;10.35;6.15;;;;;;;24.82;46.00;99960.16;5061867;28;20052;-90
2022/05/23 10:09:30;;;;;;;12.38;6.10;;;;;;;25.17;44.88;99966.94;5061648;28;20024;-90
2022/05/23 10:12:04;;;;;;;11.93;5.82;;;;;;;25.68;43.59;99964.56;5067254;28;20394;-88
2022/05/23 10:15:01;;;;;;;7.65;5.30;;;;;;;26.16;44.05;99978.75;5061777;28;20030;-89
2022/05/23 10:17:35;;;;;;;9.40;5.32;;;;;;;26.93;42.54;99973.88;5082288;28;20123;-91
2022/05/23 10:20:29;;;;;;;9.63;5.57;;;;;;;27.73;41.31;99958.53;5074854;28;20290;-89
2022/05/23 10:22:58;;;;;;;8.85;5.20;;;;;;;28.14;38.63;99955.97;5075408;28;20051;-88
2022/05/23 10:25:27;;;;;;;9.52;5.97;;;;;;;28.01;39.32;99952.31;5059129;28;20056;-89
2022/05/23 10:27:59;;;;;;;9.73;5.30;;;;;;;27.78;38.57;99966.13;5063959;28;20034;-90
2022/05/23 10:30:30;;;;;;;7.68;4.90;;;;;;;28.07;38.11;99970.53;5064536;28;20094;-89
2022/05/23 10:33:05;;;;;;;9.05;6.05;;;;;;;27.98;38.61;99967.16;5065040;28;20518;-88
2022/05/23 10:35:36;;;;;;;10.32;5.72;;;;;;;28.19;37.91;99967.09;5063213;28;20020;-88
2022/05/23 10:43:48;;;;;;;8.75;5.78;;;;;;;28.27;37.25;99957.13;5079770;28;20098;-88
2022/05/23 10:46:14;;;;;;;6.10;5.38;;;;;;;28.31;35.38;99932.06;5077211;28;20031;-89
2022/05/23 10:49:08;;;;;;;7.57;5.75;;;;;;;28.46;36.13;99938.25;5065755;28;20040;-87
2022/05/23 10:51:47;;;;;;;7.78;6.93;;;;;;;28.39;35.69;99915.59;5060337;28;20035;-88
2022/05/23 10:54:46;;;;;;;9.77;6.20;;;;;;;28.53;36.29;99921.13;5079360;28;20027;-89
2022/05/23 10:57:25;;;;;;;8.70;6.13;;;;;;;28.95;36.81;99907.31;5078185;28;20024;-88
2022/05/23 11:00:03;;;;;;;12.23;6.03;;;;;;;29.22;33.62;99900.09;5083513;28;20047;-91
2022/05/23 11:02:46;;;;;;;12.27;6.53;;;;;;;29.58;34.65;99889.91;5043887;28;20047;-90
2022/05/23 11:05:31;;;;;;;9.93;6.10;;;;;;;29.65;36.23;99902.47;5062300;28;20051;-88
2022/05/23 11:08:32;;;;;;;9.45;6.80;;;;;;;29.29;34.08;99893.84;5082176;28;20032;-89
2022/05/23 11:11:14;;;;;;;11.52;6.68;;;;;;;28.88;35.46;99876.50;5068028;28;20518;-89
2022/05/23 11:13:51;;;;;;;;;;;;;;;29.65;35.64;99869.78;5062452;28;20016;-88
2022/05/23 11:16:26;;;;;;;8.63;5.95;;;;;;;29.95;34.48;99861.19;5077710;28;20000;-89
2022/05/23 11:19:06;;;;;;;8.95;5.65;;;;;;;30.31;33.39;99844.38;5065283;28;20024;-89
2022/05/23 11:21:40;;;;;;;8.73;5.60;;;;;;;30.21;33.08;99833.88;5080291;28;20483;-88
2022/05/23 11:24:14;;;;;;;9.88;5.07;;;;;;;30.35;33.47;99821.03;5082666;28;20471;-89
2022/05/23 11:26:45;;;;;;;7.20;5.50;;;;;;;30.16;32.46;99819.22;5081781;28;20868;-88
2022/05/23 11:35:12;;;;;;;7.45;5.15;;;;;;;30.56;31.69;99800.00;5081481;28;20047;-87
2022/05/23 11:37:43;;;;;;;8.85;5.10;;;;;;;30.48;34.24;99807.34;5079406;28;20036;-87
2022/05/23 11:40:37;;;;;;;7.95;4.13;;;;;;;30.67;32.16;99794.66;5076421;28;20024;-88
2022/05/23 11:43:05;;;;;;;5.28;3.60;;;;;;;30.21;33.53;99800.31;5027095;28;20044;-88
2022/05/23 11:48:49;;;;;;;5.75;3.60;;;;;;;29.93;33.08;99797.84;5077674;28;20055;-88
2022/05/23 11:51:36;;;;;;;4.75;2.88;;;;;;;29.50;32.58;99787.41;5070454;28;20062;-87
2022/05/23 11:54:34;;;;;;;7.13;3.40;;;;;;;29.34;33.09;99783.25;5076434;28;20340;-88
2022/05/23 11:57:02;;;;;;;5.45;3.25;;;;;;;28.98;33.66;99779.03;5073750;28;20525;-89
2022/05/23 11:59:28;;;;;;;4.30;3.40;;;;;;;28.86;34.56;99774.34;5083093;28;20028;-89
2022/05/23 12:02:11;;;;;;;3.72;3.08;;;;;;;28.76;34.94;99768.47;5062857;28;20990;-88
2022/05/23 12:04:49;;;;;;;5.82;2.95;;;;;;;28.62;35.59;99767.59;5068488;28;20054;-88
2022/05/23 12:07:44;;;;;;;5.65;3.03;;;;;;;28.81;35.00;99755.94;5078255;28;20028;-89
2022/05/23 12:10:25;;;;;;;5.60;3.00;;;;;;;28.70;34.27;99765.53;5065105;28;20463;-88
2022/05/23 12:12:54;;;;;;;6.32;2.72;;;;;;;28.59;35.24;99760.72;5078706;28;20035;-88
2022/05/23 12:15:44;;;;;;;4.13;2.70;;;;;;;27.97;34.74;99764.38;5075762;28;20479;-88
2022/05/23 12:18:13;;;;;;;5.35;2.80;;;;;;;27.61;34.89;99768.13;5081104;28;20225;-89
2022/05/23 12:20:51;;;;;;;4.78;2.65;;;;;;;27.28;35.60;99761.56;5063967;28;20031;-88
2022/05/23 12:23:39;;;;;;;4.40;2.45;;;;;;;27.06;34.59;99750.72;5078450;28;20033;-88
2022/05/23 12:26:10;;;;;;;6.28;2.90;;;;;;;26.88;35.34;99758.50;5064283;28;20474;-88
2022/05/23 12:29:28;;;;;;;6.18;2.50;;;;;;;26.96;35.61;99750.22;5065683;28;20471;-87
2022/05/23 12:32:24;;;;;;;5.55;2.42;;;;;;;26.89;36.02;99752.03;5067294;28;20112;-88
2022/05/23 12:34:52;;;;;;;5.15;2.63;;;;;;;27.04;35.21;99746.53;5078847;28;20117;-88
2022/05/23 12:37:34;;;;;;;3.95;2.40;;;;;;;27.25;35.55;99751.97;5080233;28;20110;-88
2022/05/23 12:40:19;;;;;;;6.57;2.67;;;;;;;27.39;36.33;99742.06;5079921;28;20076;-88